Costa Magica — IBQQ — position and weather

sailwx.info

Track history (hours):
 
Tides and Currents Weather Stations Pressure Air Temp Water Temp Dewpoint Dewpoint Depression Visibility Wind Speed Wind Dir Waves Ship Positions

Costa Magica

Last reported at 2017-Oct-23 02:00 UTC. Time now 2017-Oct-23 02:12 UTC.
Position N 43°27' E 009°17'.

Type: Ship. MMSI: 247113300.

Date/timePositionNaut miles runAvg speedWind from/ knotsBaromVisibWave heightAir tempDewpointWater temp
2017-Oct-23 02:00N 43°27' E 009°17'816.9
2017-Oct-23 01:30N 43°20' E 009°23'816.8
2017-Oct-23 01:00N 43°12' E 009°29'816.0
2017-Oct-23 00:30N 43°06' E 009°35'816.6
2017-Oct-23 00:00N 42°58' E 009°40'816.9
2017-Oct-22 23:30N 42°51' E 009°45'916.8
2017-Oct-22 22:58N 42°46' E 009°55'1516.0
2017-Oct-22 22:01N 42°38' E 010°13'117.8
2017-Oct-22 21:58N 42°37' E 010°14'817.7
2017-Oct-22 21:30N 42°31' E 010°22'917.5
2017-Oct-22 21:00N 42°26' E 010°31'38310.2
2017-Oct-21 07:33N 38°59' E 003°26'121.1
2017-Oct-21 07:30N 38°58' E 003°25'1021.0
2017-Oct-21 07:00N 38°53' E 003°13'1121.1
2017-Oct-21 06:30N 38°48' E 003°01'1221.3
2017-Oct-21 05:56N 38°41' E 002°48'1221.3
2017-Oct-21 05:23N 38°35' E 002°35'1021.1
2017-Oct-21 04:56N 38°31' E 002°25'17020.5
2017-Oct-20 20:39N 37°04' W 000°40'420.7
2017-Oct-20 20:28N 37°02' W 000°44'21711.8
2017-Oct-20 02:02N 36°08' W 005°05'117.7
2017-Oct-20 02:00N 36°07' W 005°06'918.8
2017-Oct-20 01:30N 36°02' W 005°16'1020.1
2017-Oct-20 01:00N 35°58' W 005°27'918.3
2017-Oct-20 00:30N 35°56' W 005°38'816.7
2017-Oct-20 00:00N 35°55' W 005°48'817.1
2017-Oct-19 23:30N 35°54' W 005°59'917.2
2017-Oct-19 23:00N 35°53' W 006°09'64812.5
2017-Oct-17 19:06N 29°10' W 016°12'218.1
2017-Oct-17 19:00N 29°08' W 016°11'918.2
2017-Oct-17 18:30N 28°59' W 016°10'918.0
2017-Oct-17 18:00N 28°50' W 016°08'918.1
2017-Oct-17 17:30N 28°42' W 016°06'918.1
2017-Oct-17 17:00N 28°33' W 016°04'816.7
2017-Oct-17 16:30N 28°28' W 016°12'2 4.0
2017-Oct-17 15:59N 28°28' W 016°14'0 0.0
2017-Oct-17 15:17N 28°28' W 016°14'0 0.0
2017-Oct-17 14:50N 28°28' W 016°14'0 0.0
2017-Oct-17 14:20N 28°28' W 016°14'0 0.0
2017-Oct-17 13:23N 28°28' W 016°14'0 0.0
2017-Oct-17 12:53N 28°28' W 016°14'0 0.0
2017-Oct-17 12:23N 28°28' W 016°14'0 0.0
2017-Oct-17 11:50N 28°28' W 016°14'0 0.0
2017-Oct-17 11:23N 28°28' W 016°14'0 0.0
2017-Oct-17 10:53N 28°28' W 016°14'0 0.0
2017-Oct-17 10:26N 28°28' W 016°14'0 0.0
2017-Oct-17 09:56N 28°28' W 016°14'0 0.0
2017-Oct-17 09:26N 28°28' W 016°14'0 0.0
2017-Oct-17 08:56N 28°28' W 016°14'0 0.0
2017-Oct-17 08:26N 28°28' W 016°14'0 0.0
2017-Oct-17 07:59N 28°28' W 016°14'0 0.0
2017-Oct-17 07:29N 28°28' W 016°14'0 0.0
2017-Oct-17 06:56N 28°28' W 016°14'0 0.2
2017-Oct-17 06:30N 28°28' W 016°14'2 3.3
2017-Oct-17 06:00N 28°28' W 016°13'612.3
2017-Oct-17 05:30N 28°31' W 016°06'917.4
2017-Oct-17 05:00N 28°35' W 015°57'817.0
2017-Oct-17 04:30N 28°38' W 015°48'816.5
2017-Oct-17 04:00N 28°40' W 015°39'816.5
2017-Oct-17 03:30N 28°41' W 015°30'713.5
2017-Oct-17 03:00N 28°42' W 015°22'611.8
2017-Oct-17 02:30N 28°42' W 015°16'612.0
2017-Oct-17 02:00N 28°43' W 015°09'612.0
2017-Oct-17 01:30N 28°44' W 015°02'612.0
2017-Oct-17 01:00N 28°44' W 014°55'611.7
2017-Oct-17 00:30N 28°45' W 014°49'611.7
2017-Oct-17 00:00N 28°45' W 014°42'611.6
2017-Oct-16 23:30N 28°46' W 014°35'611.3
2017-Oct-16 23:00N 28°47' W 014°29'511.0
2017-Oct-16 22:30N 28°48' W 014°23'611.1
2017-Oct-16 22:00N 28°48' W 014°16'611.1
2017-Oct-16 21:30N 28°48' W 014°10'511.0
2017-Oct-16 21:00N 28°48' W 014°04'510.8
2017-Oct-16 20:30N 28°48' W 013°58'510.9
2017-Oct-16 20:00N 28°48' W 013°51'611.9
2017-Oct-16 19:30N 28°49' W 013°45'713.4
2017-Oct-16 19:00N 28°52' W 013°38'612.4
2017-Oct-16 18:30N 28°56' W 013°32'2 3.7
2017-Oct-16 17:53N 28°58' W 013°32'0 0.0
2017-Oct-16 17:05N 28°58' W 013°32'0 0.0
2017-Oct-16 16:59N 28°58' W 013°32'0 0.0
2017-Oct-16 11:27N 28°58' W 013°32'1 2.9
2017-Oct-16 11:01N 28°57' W 013°31'713.9
2017-Oct-16 10:31N 29°01' W 013°24'816.5
2017-Oct-16 10:01N 29°07' W 013°17'713.8
2017-Oct-16 09:28N 29°12' W 013°12'713.9
2017-Oct-16 08:59N 29°17' W 013°06'813.5
2017-Oct-16 08:25N 29°23' W 013°01'813.7
2017-Oct-16 07:48N 29°30' W 012°54'1014.3
2017-Oct-16 07:06N 29°37' W 012°47'114.7
2017-Oct-16 07:00N 29°38' W 012°46'917.5
2017-Oct-16 06:31N 29°45' W 012°39'918.3
2017-Oct-16 06:00N 29°52' W 012°32'2218.5
2017-Oct-16 04:50N 30°08' W 012°16'2318.3
2017-Oct-16 03:33N 30°26' W 011°58'118.3
2017-Oct-16 03:31N 30°26' W 011°57'918.0
2017-Oct-16 03:00N 30°33' W 011°51'917.9
2017-Oct-16 02:30N 30°40' W 011°43'917.9
2017-Oct-16 02:00N 30°47' W 011°37'1217.7
2017-Oct-16 01:18N 30°56' W 011°28'9018.1
2017-Oct-15 20:21N 32°04' W 010°19'1017.7
2017-Oct-15 19:48N 32°12' W 010°12'517.6
2017-Oct-15 19:30N 32°15' W 010°07'917.7
2017-Oct-15 19:01N 32°21' W 009°60'917.6
2017-Oct-15 18:30N 32°28' W 009°53'917.6
2017-Oct-15 18:00N 32°35' W 009°47'917.5
2017-Oct-15 17:30N 32°42' W 009°40'917.7
2017-Oct-15 17:00N 32°48' W 009°33'917.3
2017-Oct-15 16:30N 32°55' W 009°26'917.7
2017-Oct-15 16:00N 33°02' W 009°19'917.5
2017-Oct-15 15:30N 33°08' W 009°12'917.4
2017-Oct-15 15:00N 33°15' W 009°06'1817.6
2017-Oct-15 13:59N 33°28' W 008°52'817.5
2017-Oct-15 13:30N 33°35' W 008°45'817.0
2017-Oct-15 13:00N 33°41' W 008°38'1016.9
2017-Oct-15 12:27N 33°48' W 008°31'817.4
2017-Oct-15 12:01N 33°54' W 008°25'917.5
2017-Oct-15 11:30N 34°01' W 008°18'917.4
2017-Oct-15 11:00N 34°07' W 008°11'1019.4
2017-Oct-15 10:30N 34°14' W 008°03'1020.5
2017-Oct-15 10:00N 34°23' W 007°56'1020.0
2017-Oct-15 09:30N 34°30' W 007°47'1220.6
2017-Oct-15 08:56N 34°39' W 007°38'920.6
2017-Oct-15 08:30N 34°45' W 007°31'1020.9
2017-Oct-15 08:00N 34°53' W 007°23'1020.9
2017-Oct-15 07:30N 35°01' W 007°14'1020.7
2017-Oct-15 07:00N 35°09' W 007°06'1121.1
2017-Oct-15 06:30N 35°17' W 006°58'1021.1
2017-Oct-15 06:01N 35°25' W 006°49'1020.9
2017-Oct-15 05:30N 35°33' W 006°41'1121.0
2017-Oct-15 05:00N 35°41' W 006°33'1121.1
2017-Oct-15 04:30N 35°49' W 006°24'1219.8
2017-Oct-15 03:53N 35°57' W 006°13'820.2
2017-Oct-15 03:30N 35°57' W 006°03'1020.3
2017-Oct-15 03:00N 35°57' W 005°50'1319.5
2017-Oct-15 02:20N 35°57' W 005°35'720.4
2017-Oct-15 02:00N 35°59' W 005°27'1020.1
2017-Oct-15 01:30N 36°01' W 005°14'1020.5
2017-Oct-15 01:01N 36°03' W 005°02'1020.5
2017-Oct-15 00:30N 36°05' W 004°49'5119.4
2017-Oct-14 21:54N 36°13' W 003°48'1520.1
2017-Oct-14 21:08N 36°15' W 003°28'520.4
2017-Oct-14 20:52N 36°15' W 003°22'4620.4
2017-Oct-14 18:36N 36°24' W 002°26'320.0
2017-Oct-14 18:27N 36°25' W 002°22'7619.8
2017-Oct-14 14:37N 37°11' W 001°06'220.8
2017-Oct-14 14:30N 37°12' W 001°04'1020.7
2017-Oct-14 14:00N 37°18' W 000°53'1020.6
2017-Oct-14 13:30N 37°25' W 000°44'1020.5
2017-Oct-14 13:00N 37°33' W 000°36'1020.6
2017-Oct-14 12:31N 37°41' W 000°28'1020.8
2017-Oct-14 12:00N 37°50' W 000°20'1020.8
2017-Oct-14 11:30N 37°59' W 000°13'2420.7
2017-Oct-14 10:20N 38°19' E 000°04'720.7
2017-Oct-14 10:00N 38°25' E 000°08'3120.2
2017-Oct-14 08:28N 38°50' E 000°31'2820.1
2017-Oct-14 07:04N 39°12' E 000°54'419.9
2017-Oct-14 06:53N 39°15' E 000°57'4320.5
2017-Oct-14 04:48N 39°48' E 001°31'6220.5
2017-Oct-14 01:46N 40°37' E 002°21'920.1
2017-Oct-14 01:20N 40°44' E 002°29'11320.2
2017-Oct-13 19:44N 42°12' E 004°03'1020.5
2017-Oct-13 19:13N 42°20' E 004°12'1020.6
2017-Oct-13 18:46N 42°27' E 004°20'820.9
2017-Oct-13 18:23N 42°34' E 004°27'1421.2
2017-Oct-13 17:44N 42°44' E 004°39'1920.7
2017-Oct-13 16:50N 42°59' E 004°54'1020.2
2017-Oct-13 16:21N 43°06' E 005°03'719.8
2017-Oct-13 16:01N 43°12' E 005°08'917.7
2017-Oct-13 15:30N 43°19' E 005°15'4 0.4
2017-Oct-13 05:50N 43°21' E 005°20'0 1.0
2017-Oct-13 05:30N 43°21' E 005°20'4 7.2
2017-Oct-13 05:01N 43°19' E 005°15'611.4
2017-Oct-13 04:30N 43°14' E 005°11'511.0
2017-Oct-13 04:01N 43°10' E 005°15'612.3
2017-Oct-13 03:30N 43°08' E 005°23'612.4
2017-Oct-13 03:01N 43°06' E 005°30'612.5
2017-Oct-13 02:30N 43°04' E 005°39'612.4
2017-Oct-13 02:01N 43°01' E 005°46'  
Track history (hours):
 
Tides and Currents Weather Stations Pressure Air Temp Water Temp Dewpoint Dewpoint Depression Visibility Wind Speed Wind Dir Waves Ship Positions

Costa Magica

Last reported at 2017-Oct-23 02:00 UTC. Time now 2017-Oct-23 02:12 UTC.
Position N 43°27' E 009°17'.

Type: Ship. MMSI: 247113300.

Date/timePositionNaut miles runAvg speedWind from/ knotsBaromVisibWave heightAir tempDewpointWater temp
2017-Oct-23 02:00N 43°27' E 009°17'816.9
2017-Oct-23 01:30N 43°20' E 009°23'816.8
2017-Oct-23 01:00N 43°12' E 009°29'816.0
2017-Oct-23 00:30N 43°06' E 009°35'816.6
2017-Oct-23 00:00N 42°58' E 009°40'816.9
2017-Oct-22 23:30N 42°51' E 009°45'916.8
2017-Oct-22 22:58N 42°46' E 009°55'1516.0
2017-Oct-22 22:01N 42°38' E 010°13'117.8
2017-Oct-22 21:58N 42°37' E 010°14'817.7
2017-Oct-22 21:30N 42°31' E 010°22'917.5
2017-Oct-22 21:00N 42°26' E 010°31'38310.2
2017-Oct-21 07:33N 38°59' E 003°26'121.1
2017-Oct-21 07:30N 38°58' E 003°25'1021.0
2017-Oct-21 07:00N 38°53' E 003°13'1121.1
2017-Oct-21 06:30N 38°48' E 003°01'1221.3
2017-Oct-21 05:56N 38°41' E 002°48'1221.3
2017-Oct-21 05:23N 38°35' E 002°35'1021.1
2017-Oct-21 04:56N 38°31' E 002°25'17020.5
2017-Oct-20 20:39N 37°04' W 000°40'420.7
2017-Oct-20 20:28N 37°02' W 000°44'21711.8
2017-Oct-20 02:02N 36°08' W 005°05'117.7
2017-Oct-20 02:00N 36°07' W 005°06'918.8
2017-Oct-20 01:30N 36°02' W 005°16'1020.1
2017-Oct-20 01:00N 35°58' W 005°27'918.3
2017-Oct-20 00:30N 35°56' W 005°38'816.7
2017-Oct-20 00:00N 35°55' W 005°48'817.1
2017-Oct-19 23:30N 35°54' W 005°59'917.2
2017-Oct-19 23:00N 35°53' W 006°09'64812.5
2017-Oct-17 19:06N 29°10' W 016°12'218.1
2017-Oct-17 19:00N 29°08' W 016°11'918.2
2017-Oct-17 18:30N 28°59' W 016°10'918.0
2017-Oct-17 18:00N 28°50' W 016°08'918.1
2017-Oct-17 17:30N 28°42' W 016°06'918.1
2017-Oct-17 17:00N 28°33' W 016°04'816.7
2017-Oct-17 16:30N 28°28' W 016°12'2 4.0
2017-Oct-17 15:59N 28°28' W 016°14'0 0.0
2017-Oct-17 15:17N 28°28' W 016°14'0 0.0
2017-Oct-17 14:50N 28°28' W 016°14'0 0.0
2017-Oct-17 14:20N 28°28' W 016°14'0 0.0
2017-Oct-17 13:23N 28°28' W 016°14'0 0.0
2017-Oct-17 12:53N 28°28' W 016°14'0 0.0
2017-Oct-17 12:23N 28°28' W 016°14'0 0.0
2017-Oct-17 11:50N 28°28' W 016°14'0 0.0
2017-Oct-17 11:23N 28°28' W 016°14'0 0.0
2017-Oct-17 10:53N 28°28' W 016°14'0 0.0
2017-Oct-17 10:26N 28°28' W 016°14'0 0.0
2017-Oct-17 09:56N 28°28' W 016°14'0 0.0
2017-Oct-17 09:26N 28°28' W 016°14'0 0.0
2017-Oct-17 08:56N 28°28' W 016°14'0 0.0
2017-Oct-17 08:26N 28°28' W 016°14'0 0.0
2017-Oct-17 07:59N 28°28' W 016°14'0 0.0
2017-Oct-17 07:29N 28°28' W 016°14'0 0.0
2017-Oct-17 06:56N 28°28' W 016°14'0 0.2
2017-Oct-17 06:30N 28°28' W 016°14'2 3.3
2017-Oct-17 06:00N 28°28' W 016°13'612.3
2017-Oct-17 05:30N 28°31' W 016°06'917.4
2017-Oct-17 05:00N 28°35' W 015°57'817.0
2017-Oct-17 04:30N 28°38' W 015°48'816.5
2017-Oct-17 04:00N 28°40' W 015°39'816.5
2017-Oct-17 03:30N 28°41' W 015°30'713.5
2017-Oct-17 03:00N 28°42' W 015°22'611.8
2017-Oct-17 02:30N 28°42' W 015°16'612.0
2017-Oct-17 02:00N 28°43' W 015°09'612.0
2017-Oct-17 01:30N 28°44' W 015°02'612.0
2017-Oct-17 01:00N 28°44' W 014°55'611.7
2017-Oct-17 00:30N 28°45' W 014°49'611.7
2017-Oct-17 00:00N 28°45' W 014°42'611.6
2017-Oct-16 23:30N 28°46' W 014°35'611.3
2017-Oct-16 23:00N 28°47' W 014°29'511.0
2017-Oct-16 22:30N 28°48' W 014°23'611.1
2017-Oct-16 22:00N 28°48' W 014°16'611.1
2017-Oct-16 21:30N 28°48' W 014°10'511.0
2017-Oct-16 21:00N 28°48' W 014°04'510.8
2017-Oct-16 20:30N 28°48' W 013°58'510.9
2017-Oct-16 20:00N 28°48' W 013°51'611.9
2017-Oct-16 19:30N 28°49' W 013°45'713.4
2017-Oct-16 19:00N 28°52' W 013°38'612.4
2017-Oct-16 18:30N 28°56' W 013°32'2 3.7
2017-Oct-16 17:53N 28°58' W 013°32'0 0.0
2017-Oct-16 17:05N 28°58' W 013°32'0 0.0
2017-Oct-16 16:59N 28°58' W 013°32'0 0.0
2017-Oct-16 11:27N 28°58' W 013°32'1 2.9
2017-Oct-16 11:01N 28°57' W 013°31'713.9
2017-Oct-16 10:31N 29°01' W 013°24'816.5
2017-Oct-16 10:01N 29°07' W 013°17'713.8
2017-Oct-16 09:28N 29°12' W 013°12'713.9
2017-Oct-16 08:59N 29°17' W 013°06'813.5
2017-Oct-16 08:25N 29°23' W 013°01'813.7
2017-Oct-16 07:48N 29°30' W 012°54'1014.3
2017-Oct-16 07:06N 29°37' W 012°47'114.7
2017-Oct-16 07:00N 29°38' W 012°46'917.5
2017-Oct-16 06:31N 29°45' W 012°39'918.3
2017-Oct-16 06:00N 29°52' W 012°32'2218.5
2017-Oct-16 04:50N 30°08' W 012°16'2318.3
2017-Oct-16 03:33N 30°26' W 011°58'118.3
2017-Oct-16 03:31N 30°26' W 011°57'918.0
2017-Oct-16 03:00N 30°33' W 011°51'917.9
2017-Oct-16 02:30N 30°40' W 011°43'917.9
2017-Oct-16 02:00N 30°47' W 011°37'1217.7
2017-Oct-16 01:18N 30°56' W 011°28'9018.1
2017-Oct-15 20:21N 32°04' W 010°19'1017.7
2017-Oct-15 19:48N 32°12' W 010°12'517.6
2017-Oct-15 19:30N 32°15' W 010°07'917.7
2017-Oct-15 19:01N 32°21' W 009°60'917.6
2017-Oct-15 18:30N 32°28' W 009°53'917.6
2017-Oct-15 18:00N 32°35' W 009°47'917.5
2017-Oct-15 17:30N 32°42' W 009°40'917.7
2017-Oct-15 17:00N 32°48' W 009°33'917.3
2017-Oct-15 16:30N 32°55' W 009°26'917.7
2017-Oct-15 16:00N 33°02' W 009°19'917.5
2017-Oct-15 15:30N 33°08' W 009°12'917.4
2017-Oct-15 15:00N 33°15' W 009°06'1817.6
2017-Oct-15 13:59N 33°28' W 008°52'817.5
2017-Oct-15 13:30N 33°35' W 008°45'817.0
2017-Oct-15 13:00N 33°41' W 008°38'1016.9
2017-Oct-15 12:27N 33°48' W 008°31'817.4
2017-Oct-15 12:01N 33°54' W 008°25'917.5
2017-Oct-15 11:30N 34°01' W 008°18'917.4
2017-Oct-15 11:00N 34°07' W 008°11'1019.4
2017-Oct-15 10:30N 34°14' W 008°03'1020.5
2017-Oct-15 10:00N 34°23' W 007°56'1020.0
2017-Oct-15 09:30N 34°30' W 007°47'1220.6
2017-Oct-15 08:56N 34°39' W 007°38'920.6
2017-Oct-15 08:30N 34°45' W 007°31'1020.9
2017-Oct-15 08:00N 34°53' W 007°23'1020.9
2017-Oct-15 07:30N 35°01' W 007°14'1020.7
2017-Oct-15 07:00N 35°09' W 007°06'1121.1
2017-Oct-15 06:30N 35°17' W 006°58'1021.1
2017-Oct-15 06:01N 35°25' W 006°49'1020.9
2017-Oct-15 05:30N 35°33' W 006°41'1121.0
2017-Oct-15 05:00N 35°41' W 006°33'1121.1
2017-Oct-15 04:30N 35°49' W 006°24'1219.8
2017-Oct-15 03:53N 35°57' W 006°13'820.2
2017-Oct-15 03:30N 35°57' W 006°03'1020.3
2017-Oct-15 03:00N 35°57' W 005°50'1319.5
2017-Oct-15 02:20N 35°57' W 005°35'720.4
2017-Oct-15 02:00N 35°59' W 005°27'1020.1
2017-Oct-15 01:30N 36°01' W 005°14'1020.5
2017-Oct-15 01:01N 36°03' W 005°02'1020.5
2017-Oct-15 00:30N 36°05' W 004°49'5119.4
2017-Oct-14 21:54N 36°13' W 003°48'1520.1
2017-Oct-14 21:08N 36°15' W 003°28'520.4
2017-Oct-14 20:52N 36°15' W 003°22'4620.4
2017-Oct-14 18:36N 36°24' W 002°26'320.0
2017-Oct-14 18:27N 36°25' W 002°22'7619.8
2017-Oct-14 14:37N 37°11' W 001°06'220.8
2017-Oct-14 14:30N 37°12' W 001°04'1020.7
2017-Oct-14 14:00N 37°18' W 000°53'1020.6
2017-Oct-14 13:30N 37°25' W 000°44'1020.5
2017-Oct-14 13:00N 37°33' W 000°36'1020.6
2017-Oct-14 12:31N 37°41' W 000°28'1020.8
2017-Oct-14 12:00N 37°50' W 000°20'1020.8
2017-Oct-14 11:30N 37°59' W 000°13'2420.7
2017-Oct-14 10:20N 38°19' E 000°04'720.7
2017-Oct-14 10:00N 38°25' E 000°08'3120.2
2017-Oct-14 08:28N 38°50' E 000°31'2820.1
2017-Oct-14 07:04N 39°12' E 000°54'419.9
2017-Oct-14 06:53N 39°15' E 000°57'4320.5
2017-Oct-14 04:48N 39°48' E 001°31'6220.5
2017-Oct-14 01:46N 40°37' E 002°21'920.1
2017-Oct-14 01:20N 40°44' E 002°29'11320.2
2017-Oct-13 19:44N 42°12' E 004°03'1020.5
2017-Oct-13 19:13N 42°20' E 004°12'1020.6
2017-Oct-13 18:46N 42°27' E 004°20'820.9
2017-Oct-13 18:23N 42°34' E 004°27'1421.2
2017-Oct-13 17:44N 42°44' E 004°39'1920.7
2017-Oct-13 16:50N 42°59' E 004°54'1020.2
2017-Oct-13 16:21N 43°06' E 005°03'719.8
2017-Oct-13 16:01N 43°12' E 005°08'917.7
2017-Oct-13 15:30N 43°19' E 005°15'4 0.4
2017-Oct-13 05:50N 43°21' E 005°20'0 1.0
2017-Oct-13 05:30N 43°21' E 005°20'4 7.2
2017-Oct-13 05:01N 43°19' E 005°15'611.4
2017-Oct-13 04:30N 43°14' E 005°11'511.0
2017-Oct-13 04:01N 43°10' E 005°15'612.3
2017-Oct-13 03:30N 43°08' E 005°23'612.4
2017-Oct-13 03:01N 43°06' E 005°30'612.5
2017-Oct-13 02:30N 43°04' E 005°39'612.4
2017-Oct-13 02:01N 43°01' E 005°46'  

Dump ship's entire track history